sensor_id;sensor_type;location;lat;lon;timestamp;P1;durP1;ratioP1;P2;durP2;ratioP2
38266;SDS011;24063;51.794;19.578;2023-01-15T00:00:17;8.44;;;8.43;;
38266;SDS011;24063;51.794;19.578;2023-01-15T00:01:40;7.14;;;7.14;;
38266;SDS011;24063;51.794;19.578;2023-01-15T00:02:42;7.29;;;7.29;;
38266;SDS011;24063;51.794;19.578;2023-01-15T00:03:44;7.62;;;7.62;;
38266;SDS011;24063;51.794;19.578;2023-01-15T00:04:49;7.40;;;7.39;;
38266;SDS011;24063;51.794;19.578;2023-01-15T00:05:52;6.75;;;6.74;;
38266;SDS011;24063;51.794;19.578;2023-01-15T00:06:54;7.02;;;7.02;;
38266;SDS011;24063;51.794;19.578;2023-01-15T00:07:55;7.22;;;7.19;;
38266;SDS011;24063;51.794;19.578;2023-01-15T00:08:57;7.19;;;7.17;;
38266;SDS011;24063;51.794;19.578;2023-01-15T00:09:59;7.14;;;7.12;;
38266;SDS011;24063;51.794;19.578;2023-01-15T00:11:02;7.31;;;7.29;;
38266;SDS011;24063;51.794;19.578;2023-01-15T00:12:04;6.94;;;6.92;;
38266;SDS011;24063;51.794;19.578;2023-01-15T00:13:06;7.56;;;7.54;;
38266;SDS011;24063;51.794;19.578;2023-01-15T00:14:08;7.97;;;7.88;;
38266;SDS011;24063;51.794;19.578;2023-01-15T00:15:10;6.82;;;6.74;;
38266;SDS011;24063;51.794;19.578;2023-01-15T00:17:18;6.70;;;6.69;;
38266;SDS011;24063;51.794;19.578;2023-01-15T00:18:20;7.33;;;7.33;;
38266;SDS011;24063;51.794;19.578;2023-01-15T00:19:22;6.71;;;6.71;;
38266;SDS011;24063;51.794;19.578;2023-01-15T00:20:24;6.51;;;6.49;;
38266;SDS011;24063;51.794;19.578;2023-01-15T00:21:27;6.83;;;6.81;;
38266;SDS011;24063;51.794;19.578;2023-01-15T00:22:29;7.42;;;7.40;;
38266;SDS011;24063;51.794;19.578;2023-01-15T00:23:32;7.92;;;7.89;;
38266;SDS011;24063;51.794;19.578;2023-01-15T00:24:53;7.16;;;7.08;;
38266;SDS011;24063;51.794;19.578;2023-01-15T00:26:17;6.85;;;6.85;;
38266;SDS011;24063;51.794;19.578;2023-01-15T00:27:39;6.76;;;6.76;;
38266;SDS011;24063;51.794;19.578;2023-01-15T00:28:42;7.34;;;7.33;;
38266;SDS011;24063;51.794;19.578;2023-01-15T00:29:44;6.71;;;6.70;;
38266;SDS011;24063;51.794;19.578;2023-01-15T00:30:46;6.51;;;6.50;;
38266;SDS011;24063;51.794;19.578;2023-01-15T00:31:51;6.69;;;6.68;;
38266;SDS011;24063;51.794;19.578;2023-01-15T00:32:56;6.40;;;6.39;;
38266;SDS011;24063;51.794;19.578;2023-01-15T00:34:00;6.87;;;6.82;;
38266;SDS011;24063;51.794;19.578;2023-01-15T00:35:02;6.50;;;6.45;;
38266;SDS011;24063;51.794;19.578;2023-01-15T00:36:05;6.82;;;6.80;;
38266;SDS011;24063;51.794;19.578;2023-01-15T00:37:06;6.97;;;6.94;;
38266;SDS011;24063;51.794;19.578;2023-01-15T00:38:08;6.18;;;6.16;;
38266;SDS011;24063;51.794;19.578;2023-01-15T00:39:10;6.50;;;6.50;;
38266;SDS011;24063;51.794;19.578;2023-01-15T00:40:14;6.14;;;6.14;;
38266;SDS011;24063;51.794;19.578;2023-01-15T00:41:18;6.17;;;6.17;;
38266;SDS011;24063;51.794;19.578;2023-01-15T00:42:22;6.28;;;6.28;;
38266;SDS011;24063;51.794;19.578;2023-01-15T00:43:24;6.07;;;6.07;;
38266;SDS011;24063;51.794;19.578;2023-01-15T00:44:26;5.81;;;5.81;;
38266;SDS011;24063;51.794;19.578;2023-01-15T00:45:28;5.80;;;5.80;;
38266;SDS011;24063;51.794;19.578;2023-01-15T00:46:30;6.01;;;6.01;;
38266;SDS011;24063;51.794;19.578;2023-01-15T00:47:32;6.55;;;6.55;;
38266;SDS011;24063;51.794;19.578;2023-01-15T00:48:34;6.31;;;6.31;;
38266;SDS011;24063;51.794;19.578;2023-01-15T00:49:36;7.20;;;7.20;;
38266;SDS011;24063;51.794;19.578;2023-01-15T00:50:38;6.67;;;6.67;;
38266;SDS011;24063;51.794;19.578;2023-01-15T00:51:40;6.63;;;6.63;;
38266;SDS011;24063;51.794;19.578;2023-01-15T00:52:42;6.29;;;6.27;;
38266;SDS011;24063;51.794;19.578;2023-01-15T00:53:43;6.28;;;6.26;;
38266;SDS011;24063;51.794;19.578;2023-01-15T00:54:45;7.23;;;7.19;;
38266;SDS011;24063;51.794;19.578;2023-01-15T00:55:48;6.66;;;6.61;;
38266;SDS011;24063;51.794;19.578;2023-01-15T00:56:50;6.45;;;6.45;;
38266;SDS011;24063;51.794;19.578;2023-01-15T00:57:53;6.40;;;6.39;;
38266;SDS011;24063;51.794;19.578;2023-01-15T00:58:55;6.54;;;6.53;;
38266;SDS011;24063;51.794;19.578;2023-01-15T00:59:57;6.48;;;6.47;;
38266;SDS011;24063;51.794;19.578;2023-01-15T01:00:59;6.66;;;6.65;;
38266;SDS011;24063;51.794;19.578;2023-01-15T01:02:04;6.08;;;6.08;;
38266;SDS011;24063;51.794;19.578;2023-01-15T01:03:06;6.75;;;6.75;;
38266;SDS011;24063;51.794;19.578;2023-01-15T01:04:08;6.35;;;6.35;;
38266;SDS011;24063;51.794;19.578;2023-01-15T01:05:09;6.40;;;6.40;;
38266;SDS011;24063;51.794;19.578;2023-01-15T01:06:11;6.36;;;6.35;;
38266;SDS011;24063;51.794;19.578;2023-01-15T01:07:13;6.82;;;6.80;;
38266;SDS011;24063;51.794;19.578;2023-01-15T01:08:15;6.61;;;6.58;;
38266;SDS011;24063;51.794;19.578;2023-01-15T01:09:17;6.57;;;6.51;;
38266;SDS011;24063;51.794;19.578;2023-01-15T01:10:19;6.85;;;6.78;;
38266;SDS011;24063;51.794;19.578;2023-01-15T01:11:22;6.80;;;6.76;;
38266;SDS011;24063;51.794;19.578;2023-01-15T01:12:27;6.48;;;6.45;;
38266;SDS011;24063;51.794;19.578;2023-01-15T01:13:29;6.39;;;6.35;;
38266;SDS011;24063;51.794;19.578;2023-01-15T01:14:31;6.16;;;6.11;;
38266;SDS011;24063;51.794;19.578;2023-01-15T01:15:33;6.56;;;6.51;;
38266;SDS011;24063;51.794;19.578;2023-01-15T01:16:39;6.21;;;6.16;;
38266;SDS011;24063;51.794;19.578;2023-01-15T01:17:42;6.21;;;6.20;;
38266;SDS011;24063;51.794;19.578;2023-01-15T01:18:44;6.10;;;6.10;;
38266;SDS011;24063;51.794;19.578;2023-01-15T01:19:46;6.28;;;6.28;;
38266;SDS011;24063;51.794;19.578;2023-01-15T01:20:47;6.10;;;6.10;;
38266;SDS011;24063;51.794;19.578;2023-01-15T01:21:50;6.00;;;6.00;;
38266;SDS011;24063;51.794;19.578;2023-01-15T01:22:53;6.31;;;6.25;;
38266;SDS011;24063;51.794;19.578;2023-01-15T01:23:57;6.39;;;6.29;;
38266;SDS011;24063;51.794;19.578;2023-01-15T01:24:59;6.51;;;6.41;;
38266;SDS011;24063;51.794;19.578;2023-01-15T01:26:01;6.18;;;6.10;;
38266;SDS011;24063;51.794;19.578;2023-01-15T01:27:03;6.78;;;6.69;;
38266;SDS011;24063;51.794;19.578;2023-01-15T01:28:05;6.82;;;6.72;;
38266;SDS011;24063;51.794;19.578;2023-01-15T01:29:07;6.72;;;6.62;;
38266;SDS011;24063;51.794;19.578;2023-01-15T01:30:09;6.71;;;6.62;;
38266;SDS011;24063;51.794;19.578;2023-01-15T01:31:13;6.50;;;6.43;;
38266;SDS011;24063;51.794;19.578;2023-01-15T01:32:15;6.75;;;6.66;;
38266;SDS011;24063;51.794;19.578;2023-01-15T01:33:17;6.45;;;6.40;;
38266;SDS011;24063;51.794;19.578;2023-01-15T01:34:19;6.39;;;6.36;;
38266;SDS011;24063;51.794;19.578;2023-01-15T01:35:21;6.52;;;6.47;;
38266;SDS011;24063;51.794;19.578;2023-01-15T01:36:29;6.08;;;6.07;;
38266;SDS011;24063;51.794;19.578;2023-01-15T01:37:33;5.54;;;5.53;;
38266;SDS011;24063;51.794;19.578;2023-01-15T01:38:36;6.23;;;6.17;;
38266;SDS011;24063;51.794;19.578;2023-01-15T01:39:38;6.18;;;6.13;;
38266;SDS011;24063;51.794;19.578;2023-01-15T01:40:41;5.59;;;5.59;;
38266;SDS011;24063;51.794;19.578;2023-01-15T01:41:44;5.50;;;5.50;;
38266;SDS011;24063;51.794;19.578;2023-01-15T01:42:48;5.71;;;5.67;;
38266;SDS011;24063;51.794;19.578;2023-01-15T01:45:06;5.80;;;5.80;;
38266;SDS011;24063;51.794;19.578;2023-01-15T01:46:19;5.74;;;5.74;;
38266;SDS011;24063;51.794;19.578;2023-01-15T01:47:22;5.92;;;5.92;;
38266;SDS011;24063;51.794;19.578;2023-01-15T01:48:29;6.38;;;6.37;;
38266;SDS011;24063;51.794;19.578;2023-01-15T01:49:35;6.20;;;6.14;;
38266;SDS011;24063;51.794;19.578;2023-01-15T01:50:40;6.04;;;5.96;;
38266;SDS011;24063;51.794;19.578;2023-01-15T01:51:46;5.58;;;5.53;;
38266;SDS011;24063;51.794;19.578;2023-01-15T01:52:59;5.94;;;5.94;;
38266;SDS011;24063;51.794;19.578;2023-01-15T01:54:12;5.41;;;5.40;;
38266;SDS011;24063;51.794;19.578;2023-01-15T01:55:20;5.91;;;5.89;;
38266;SDS011;24063;51.794;19.578;2023-01-15T01:56:27;5.62;;;5.58;;
38266;SDS011;24063;51.794;19.578;2023-01-15T01:57:33;5.78;;;5.74;;
38266;SDS011;24063;51.794;19.578;2023-01-15T01:58:35;6.12;;;6.07;;
38266;SDS011;24063;51.794;19.578;2023-01-15T01:59:37;5.45;;;5.44;;
38266;SDS011;24063;51.794;19.578;2023-01-15T02:00:42;6.33;;;6.31;;
38266;SDS011;24063;51.794;19.578;2023-01-15T02:01:49;5.92;;;5.88;;
38266;SDS011;24063;51.794;19.578;2023-01-15T02:02:52;5.67;;;5.64;;
38266;SDS011;24063;51.794;19.578;2023-01-15T02:03:55;5.92;;;5.89;;
38266;SDS011;24063;51.794;19.578;2023-01-15T02:04:58;6.41;;;6.36;;
38266;SDS011;24063;51.794;19.578;2023-01-15T02:06:01;5.63;;;5.55;;
38266;SDS011;24063;51.794;19.578;2023-01-15T02:07:07;5.63;;;5.58;;
38266;SDS011;24063;51.794;19.578;2023-01-15T02:08:11;5.85;;;5.83;;
38266;SDS011;24063;51.794;19.578;2023-01-15T02:09:12;5.79;;;5.78;;
38266;SDS011;24063;51.794;19.578;2023-01-15T02:10:15;5.80;;;5.80;;
38266;SDS011;24063;51.794;19.578;2023-01-15T02:11:21;5.29;;;5.24;;
38266;SDS011;24063;51.794;19.578;2023-01-15T02:12:27;5.56;;;5.49;;
38266;SDS011;24063;51.794;19.578;2023-01-15T02:13:37;5.82;;;5.78;;
38266;SDS011;24063;51.794;19.578;2023-01-15T02:14:47;5.47;;;5.46;;
38266;SDS011;24063;51.794;19.578;2023-01-15T02:16:20;5.75;;;5.75;;
38266;SDS011;24063;51.794;19.578;2023-01-15T02:17:41;5.25;;;5.25;;
38266;SDS011;24063;51.794;19.578;2023-01-15T02:19:02;5.69;;;5.68;;
38266;SDS011;24063;51.794;19.578;2023-01-15T02:20:17;5.60;;;5.59;;
38266;SDS011;24063;51.794;19.578;2023-01-15T02:21:45;5.59;;;5.59;;
38266;SDS011;24063;51.794;19.578;2023-01-15T02:23:02;5.22;;;5.22;;
38266;SDS011;24063;51.794;19.578;2023-01-15T02:27:16;5.76;;;5.74;;
38266;SDS011;24063;51.794;19.578;2023-01-15T02:28:25;5.59;;;5.55;;
38266;SDS011;24063;51.794;19.578;2023-01-15T02:31:11;5.71;;;5.69;;
38266;SDS011;24063;51.794;19.578;2023-01-15T02:32:31;5.75;;;5.73;;
38266;SDS011;24063;51.794;19.578;2023-01-15T02:33:45;6.46;;;6.43;;
38266;SDS011;24063;51.794;19.578;2023-01-15T02:34:52;5.64;;;5.60;;
38266;SDS011;24063;51.794;19.578;2023-01-15T02:36:02;5.99;;;5.97;;
38266;SDS011;24063;51.794;19.578;2023-01-15T02:37:12;6.61;;;6.60;;
38266;SDS011;24063;51.794;19.578;2023-01-15T02:38:21;5.56;;;5.53;;
38266;SDS011;24063;51.794;19.578;2023-01-15T02:39:31;6.02;;;5.97;;
38266;SDS011;24063;51.794;19.578;2023-01-15T02:40:39;6.00;;;5.97;;
38266;SDS011;24063;51.794;19.578;2023-01-15T02:41:45;5.68;;;5.66;;
38266;SDS011;24063;51.794;19.578;2023-01-15T02:42:53;5.90;;;5.90;;
38266;SDS011;24063;51.794;19.578;2023-01-15T02:43:57;6.12;;;6.10;;
38266;SDS011;24063;51.794;19.578;2023-01-15T02:45:05;6.25;;;6.24;;
38266;SDS011;24063;51.794;19.578;2023-01-15T02:46:15;6.23;;;6.22;;
38266;SDS011;24063;51.794;19.578;2023-01-15T02:47:23;6.18;;;6.17;;
38266;SDS011;24063;51.794;19.578;2023-01-15T02:48:31;5.77;;;5.75;;
38266;SDS011;24063;51.794;19.578;2023-01-15T02:49:38;5.93;;;5.92;;
38266;SDS011;24063;51.794;19.578;2023-01-15T02:50:47;5.71;;;5.69;;
38266;SDS011;24063;51.794;19.578;2023-01-15T02:52:00;5.93;;;5.91;;
38266;SDS011;24063;51.794;19.578;2023-01-15T02:53:09;6.02;;;5.96;;
38266;SDS011;24063;51.794;19.578;2023-01-15T02:54:19;6.33;;;6.32;;
38266;SDS011;24063;51.794;19.578;2023-01-15T02:55:27;5.87;;;5.86;;
38266;SDS011;24063;51.794;19.578;2023-01-15T02:56:36;5.70;;;5.69;;
38266;SDS011;24063;51.794;19.578;2023-01-15T02:57:45;6.38;;;6.37;;
38266;SDS011;24063;51.794;19.578;2023-01-15T02:58:52;6.20;;;6.18;;
38266;SDS011;24063;51.794;19.578;2023-01-15T03:00:00;5.85;;;5.84;;
38266;SDS011;24063;51.794;19.578;2023-01-15T03:01:17;5.72;;;5.72;;
38266;SDS011;24063;51.794;19.578;2023-01-15T03:02:27;5.85;;;5.85;;
38266;SDS011;24063;51.794;19.578;2023-01-15T03:05:17;5.38;;;5.31;;
38266;SDS011;24063;51.794;19.578;2023-01-15T03:06:44;5.96;;;5.89;;
38266;SDS011;24063;51.794;19.578;2023-01-15T03:07:56;5.81;;;5.81;;
38266;SDS011;24063;51.794;19.578;2023-01-15T03:09:05;5.66;;;5.66;;
38266;SDS011;24063;51.794;19.578;2023-01-15T03:10:08;6.27;;;6.27;;
38266;SDS011;24063;51.794;19.578;2023-01-15T03:11:13;6.00;;;5.99;;
38266;SDS011;24063;51.794;19.578;2023-01-15T03:14:18;5.61;;;5.61;;
38266;SDS011;24063;51.794;19.578;2023-01-15T03:15:38;5.99;;;5.98;;
38266;SDS011;24063;51.794;19.578;2023-01-15T03:17:14;6.30;;;6.26;;
38266;SDS011;24063;51.794;19.578;2023-01-15T03:18:25;6.33;;;6.29;;
38266;SDS011;24063;51.794;19.578;2023-01-15T03:20:51;5.92;;;5.89;;
38266;SDS011;24063;51.794;19.578;2023-01-15T03:23:23;5.69;;;5.68;;
38266;SDS011;24063;51.794;19.578;2023-01-15T03:24:31;5.62;;;5.61;;
38266;SDS011;24063;51.794;19.578;2023-01-15T03:25:39;5.81;;;5.78;;
38266;SDS011;24063;51.794;19.578;2023-01-15T03:26:49;5.61;;;5.60;;
38266;SDS011;24063;51.794;19.578;2023-01-15T03:27:51;6.41;;;6.40;;
38266;SDS011;24063;51.794;19.578;2023-01-15T03:29:01;6.29;;;6.27;;
38266;SDS011;24063;51.794;19.578;2023-01-15T03:30:09;6.03;;;6.01;;
38266;SDS011;24063;51.794;19.578;2023-01-15T03:31:15;5.57;;;5.53;;
38266;SDS011;24063;51.794;19.578;2023-01-15T03:32:17;5.99;;;5.92;;
38266;SDS011;24063;51.794;19.578;2023-01-15T03:33:20;5.83;;;5.78;;
38266;SDS011;24063;51.794;19.578;2023-01-15T03:34:23;6.25;;;6.24;;
38266;SDS011;24063;51.794;19.578;2023-01-15T03:36:58;6.53;;;6.51;;
38266;SDS011;24063;51.794;19.578;2023-01-15T03:38:00;5.63;;;5.62;;
38266;SDS011;24063;51.794;19.578;2023-01-15T03:39:03;5.77;;;5.75;;
38266;SDS011;24063;51.794;19.578;2023-01-15T03:42:18;5.72;;;5.72;;
38266;SDS011;24063;51.794;19.578;2023-01-15T03:44:01;5.99;;;5.97;;
38266;SDS011;24063;51.794;19.578;2023-01-15T03:45:14;5.45;;;5.45;;
38266;SDS011;24063;51.794;19.578;2023-01-15T03:48:00;6.03;;;6.03;;
38266;SDS011;24063;51.794;19.578;2023-01-15T03:49:14;5.64;;;5.64;;
38266;SDS011;24063;51.794;19.578;2023-01-15T03:50:49;5.74;;;5.73;;
38266;SDS011;24063;51.794;19.578;2023-01-15T03:52:21;5.25;;;5.25;;
38266;SDS011;24063;51.794;19.578;2023-01-15T03:53:50;5.23;;;5.23;;
38266;SDS011;24063;51.794;19.578;2023-01-15T03:54:59;5.22;;;5.21;;
38266;SDS011;24063;51.794;19.578;2023-01-15T03:56:23;5.59;;;5.59;;
38266;SDS011;24063;51.794;19.578;2023-01-15T03:57:42;5.09;;;5.08;;
38266;SDS011;24063;51.794;19.578;2023-01-15T03:58:56;5.14;;;5.14;;
38266;SDS011;24063;51.794;19.578;2023-01-15T04:01:37;4.76;;;4.74;;
38266;SDS011;24063;51.794;19.578;2023-01-15T04:02:44;5.34;;;5.32;;
38266;SDS011;24063;51.794;19.578;2023-01-15T04:03:51;5.57;;;5.56;;
38266;SDS011;24063;51.794;19.578;2023-01-15T04:04:58;4.96;;;4.96;;
38266;SDS011;24063;51.794;19.578;2023-01-15T04:06:02;5.29;;;5.28;;
38266;SDS011;24063;51.794;19.578;2023-01-15T04:07:07;4.93;;;4.92;;
38266;SDS011;24063;51.794;19.578;2023-01-15T04:08:09;5.32;;;5.32;;
38266;SDS011;24063;51.794;19.578;2023-01-15T04:09:19;5.09;;;5.08;;
38266;SDS011;24063;51.794;19.578;2023-01-15T04:10:25;5.18;;;5.16;;
38266;SDS011;24063;51.794;19.578;2023-01-15T04:11:29;5.05;;;5.05;;
38266;SDS011;24063;51.794;19.578;2023-01-15T04:12:36;5.10;;;5.10;;
38266;SDS011;24063;51.794;19.578;2023-01-15T04:13:41;4.62;;;4.60;;
38266;SDS011;24063;51.794;19.578;2023-01-15T04:14:56;5.10;;;5.08;;
38266;SDS011;24063;51.794;19.578;2023-01-15T04:15:59;4.49;;;4.46;;
38266;SDS011;24063;51.794;19.578;2023-01-15T04:17:01;5.22;;;5.18;;
38266;SDS011;24063;51.794;19.578;2023-01-15T04:18:03;4.82;;;4.79;;
38266;SDS011;24063;51.794;19.578;2023-01-15T04:19:05;4.65;;;4.63;;
38266;SDS011;24063;51.794;19.578;2023-01-15T04:20:10;4.68;;;4.67;;
38266;SDS011;24063;51.794;19.578;2023-01-15T04:21:15;4.77;;;4.72;;
38266;SDS011;24063;51.794;19.578;2023-01-15T04:22:17;4.82;;;4.76;;
38266;SDS011;24063;51.794;19.578;2023-01-15T04:23:19;4.95;;;4.92;;
38266;SDS011;24063;51.794;19.578;2023-01-15T04:24:21;4.58;;;4.57;;
38266;SDS011;24063;51.794;19.578;2023-01-15T04:25:24;4.60;;;4.56;;
38266;SDS011;24063;51.794;19.578;2023-01-15T04:26:26;5.25;;;5.22;;
38266;SDS011;24063;51.794;19.578;2023-01-15T04:27:28;4.95;;;4.93;;
38266;SDS011;24063;51.794;19.578;2023-01-15T04:28:31;4.81;;;4.81;;
38266;SDS011;24063;51.794;19.578;2023-01-15T04:29:33;4.52;;;4.50;;
38266;SDS011;24063;51.794;19.578;2023-01-15T04:30:36;4.69;;;4.68;;
38266;SDS011;24063;51.794;19.578;2023-01-15T04:31:38;4.38;;;4.38;;
38266;SDS011;24063;51.794;19.578;2023-01-15T04:32:39;4.69;;;4.69;;
38266;SDS011;24063;51.794;19.578;2023-01-15T04:33:41;4.88;;;4.88;;
38266;SDS011;24063;51.794;19.578;2023-01-15T04:34:43;4.21;;;4.21;;
38266;SDS011;24063;51.794;19.578;2023-01-15T04:35:46;4.38;;;4.38;;
38266;SDS011;24063;51.794;19.578;2023-01-15T04:36:47;4.49;;;4.49;;
38266;SDS011;24063;51.794;19.578;2023-01-15T04:37:53;4.46;;;4.46;;
38266;SDS011;24063;51.794;19.578;2023-01-15T04:38:56;4.66;;;4.66;;
38266;SDS011;24063;51.794;19.578;2023-01-15T04:40:00;4.46;;;4.46;;
38266;SDS011;24063;51.794;19.578;2023-01-15T04:41:02;4.51;;;4.51;;
38266;SDS011;24063;51.794;19.578;2023-01-15T04:42:23;4.11;;;4.11;;
38266;SDS011;24063;51.794;19.578;2023-01-15T04:43:43;4.64;;;4.64;;
38266;SDS011;24063;51.794;19.578;2023-01-15T04:45:05;4.13;;;4.13;;
38266;SDS011;24063;51.794;19.578;2023-01-15T04:46:07;4.38;;;4.37;;
38266;SDS011;24063;51.794;19.578;2023-01-15T04:47:09;4.59;;;4.58;;
38266;SDS011;24063;51.794;19.578;2023-01-15T04:48:11;4.17;;;4.17;;
38266;SDS011;24063;51.794;19.578;2023-01-15T04:49:14;4.43;;;4.43;;
38266;SDS011;24063;51.794;19.578;2023-01-15T04:50:18;4.63;;;4.63;;
38266;SDS011;24063;51.794;19.578;2023-01-15T04:51:20;4.42;;;4.41;;
38266;SDS011;24063;51.794;19.578;2023-01-15T04:52:22;4.32;;;4.30;;
38266;SDS011;24063;51.794;19.578;2023-01-15T04:53:24;3.90;;;3.89;;
38266;SDS011;24063;51.794;19.578;2023-01-15T04:54:27;3.87;;;3.86;;
38266;SDS011;24063;51.794;19.578;2023-01-15T04:55:29;4.11;;;4.11;;
38266;SDS011;24063;51.794;19.578;2023-01-15T04:56:32;4.37;;;4.37;;
38266;SDS011;24063;51.794;19.578;2023-01-15T04:57:39;3.97;;;3.97;;
38266;SDS011;24063;51.794;19.578;2023-01-15T04:58:41;3.74;;;3.73;;
38266;SDS011;24063;51.794;19.578;2023-01-15T04:59:43;4.29;;;4.29;;
38266;SDS011;24063;51.794;19.578;2023-01-15T05:00:45;3.71;;;3.71;;
38266;SDS011;24063;51.794;19.578;2023-01-15T05:01:47;4.00;;;4.00;;
38266;SDS011;24063;51.794;19.578;2023-01-15T05:03:04;3.85;;;3.85;;
38266;SDS011;24063;51.794;19.578;2023-01-15T05:04:06;3.89;;;3.89;;
38266;SDS011;24063;51.794;19.578;2023-01-15T05:05:08;4.49;;;4.49;;
38266;SDS011;24063;51.794;19.578;2023-01-15T05:06:10;3.75;;;3.75;;
38266;SDS011;24063;51.794;19.578;2023-01-15T05:07:14;4.10;;;4.10;;
38266;SDS011;24063;51.794;19.578;2023-01-15T05:08:16;4.30;;;4.29;;
38266;SDS011;24063;51.794;19.578;2023-01-15T05:09:18;3.88;;;3.88;;
38266;SDS011;24063;51.794;19.578;2023-01-15T05:10:20;3.86;;;3.86;;
38266;SDS011;24063;51.794;19.578;2023-01-15T05:11:22;3.83;;;3.83;;
38266;SDS011;24063;51.794;19.578;2023-01-15T05:12:24;3.65;;;3.65;;
38266;SDS011;24063;51.794;19.578;2023-01-15T05:13:27;3.61;;;3.61;;
38266;SDS011;24063;51.794;19.578;2023-01-15T05:14:29;3.35;;;3.35;;
38266;SDS011;24063;51.794;19.578;2023-01-15T05:15:31;3.48;;;3.47;;
38266;SDS011;24063;51.794;19.578;2023-01-15T05:16:33;3.56;;;3.55;;
38266;SDS011;24063;51.794;19.578;2023-01-15T05:17:36;4.06;;;4.06;;
38266;SDS011;24063;51.794;19.578;2023-01-15T05:18:38;3.50;;;3.50;;
38266;SDS011;24063;51.794;19.578;2023-01-15T05:19:40;3.82;;;3.82;;
38266;SDS011;24063;51.794;19.578;2023-01-15T05:20:42;3.37;;;3.37;;
38266;SDS011;24063;51.794;19.578;2023-01-15T05:21:44;3.21;;;3.21;;
38266;SDS011;24063;51.794;19.578;2023-01-15T05:22:46;3.60;;;3.60;;
38266;SDS011;24063;51.794;19.578;2023-01-15T05:23:48;3.14;;;3.14;;
38266;SDS011;24063;51.794;19.578;2023-01-15T05:24:52;3.08;;;3.08;;
38266;SDS011;24063;51.794;19.578;2023-01-15T05:25:54;3.30;;;3.30;;
38266;SDS011;24063;51.794;19.578;2023-01-15T05:26:56;3.36;;;3.36;;
38266;SDS011;24063;51.794;19.578;2023-01-15T05:27:58;3.32;;;3.32;;
38266;SDS011;24063;51.794;19.578;2023-01-15T05:29:00;3.34;;;3.34;;
38266;SDS011;24063;51.794;19.578;2023-01-15T05:30:04;3.17;;;3.17;;
38266;SDS011;24063;51.794;19.578;2023-01-15T05:31:07;3.39;;;3.39;;
38266;SDS011;24063;51.794;19.578;2023-01-15T05:32:10;3.27;;;3.27;;
38266;SDS011;24063;51.794;19.578;2023-01-15T05:33:11;3.19;;;3.19;;
38266;SDS011;24063;51.794;19.578;2023-01-15T05:34:13;3.24;;;3.24;;
38266;SDS011;24063;51.794;19.578;2023-01-15T05:35:16;3.36;;;3.36;;
38266;SDS011;24063;51.794;19.578;2023-01-15T05:36:19;3.26;;;3.26;;
38266;SDS011;24063;51.794;19.578;2023-01-15T05:37:22;3.23;;;3.23;;
38266;SDS011;24063;51.794;19.578;2023-01-15T05:38:24;3.38;;;3.38;;
38266;SDS011;24063;51.794;19.578;2023-01-15T05:39:26;3.01;;;3.00;;
38266;SDS011;24063;51.794;19.578;2023-01-15T05:40:28;3.00;;;3.00;;
38266;SDS011;24063;51.794;19.578;2023-01-15T05:41:30;3.12;;;3.11;;
38266;SDS011;24063;51.794;19.578;2023-01-15T05:42:52;3.13;;;3.13;;
38266;SDS011;24063;51.794;19.578;2023-01-15T05:43:54;3.26;;;3.26;;
38266;SDS011;24063;51.794;19.578;2023-01-15T05:44:59;3.13;;;3.13;;
38266;SDS011;24063;51.794;19.578;2023-01-15T05:46:01;3.29;;;3.29;;
38266;SDS011;24063;51.794;19.578;2023-01-15T05:47:03;3.17;;;3.17;;
38266;SDS011;24063;51.794;19.578;2023-01-15T05:48:08;3.46;;;3.46;;
38266;SDS011;24063;51.794;19.578;2023-01-15T05:49:10;3.11;;;3.11;;
38266;SDS011;24063;51.794;19.578;2023-01-15T05:50:21;3.08;;;3.08;;
38266;SDS011;24063;51.794;19.578;2023-01-15T05:51:23;3.23;;;3.23;;
38266;SDS011;24063;51.794;19.578;2023-01-15T05:52:24;3.28;;;3.28;;
38266;SDS011;24063;51.794;19.578;2023-01-15T05:53:27;3.36;;;3.36;;
38266;SDS011;24063;51.794;19.578;2023-01-15T05:54:31;3.09;;;3.09;;
38266;SDS011;24063;51.794;19.578;2023-01-15T05:55:34;3.35;;;3.35;;
38266;SDS011;24063;51.794;19.578;2023-01-15T05:56:36;3.02;;;3.02;;
38266;SDS011;24063;51.794;19.578;2023-01-15T05:57:39;3.09;;;3.09;;
38266;SDS011;24063;51.794;19.578;2023-01-15T05:58:40;3.12;;;3.12;;
38266;SDS011;24063;51.794;19.578;2023-01-15T05:59:42;3.24;;;3.24;;
38266;SDS011;24063;51.794;19.578;2023-01-15T06:00:45;2.85;;;2.85;;
38266;SDS011;24063;51.794;19.578;2023-01-15T06:01:47;3.21;;;3.21;;
38266;SDS011;24063;51.794;19.578;2023-01-15T06:02:50;3.34;;;3.34;;
38266;SDS011;24063;51.794;19.578;2023-01-15T06:03:52;3.03;;;3.03;;
38266;SDS011;24063;51.794;19.578;2023-01-15T06:04:56;3.03;;;3.03;;
38266;SDS011;24063;51.794;19.578;2023-01-15T06:05:58;3.07;;;3.07;;
38266;SDS011;24063;51.794;19.578;2023-01-15T06:06:59;3.01;;;3.01;;
38266;SDS011;24063;51.794;19.578;2023-01-15T06:08:01;3.27;;;3.27;;
38266;SDS011;24063;51.794;19.578;2023-01-15T06:09:03;3.47;;;3.47;;
38266;SDS011;24063;51.794;19.578;2023-01-15T06:10:05;3.31;;;3.31;;
38266;SDS011;24063;51.794;19.578;2023-01-15T06:11:08;3.09;;;3.09;;
38266;SDS011;24063;51.794;19.578;2023-01-15T06:12:11;3.05;;;3.05;;
38266;SDS011;24063;51.794;19.578;2023-01-15T06:13:13;3.22;;;3.22;;
38266;SDS011;24063;51.794;19.578;2023-01-15T06:14:16;2.73;;;2.73;;
38266;SDS011;24063;51.794;19.578;2023-01-15T06:15:18;3.15;;;3.15;;
38266;SDS011;24063;51.794;19.578;2023-01-15T06:16:20;3.02;;;3.02;;
38266;SDS011;24063;51.794;19.578;2023-01-15T06:17:22;2.86;;;2.86;;
38266;SDS011;24063;51.794;19.578;2023-01-15T06:18:24;3.08;;;3.08;;
38266;SDS011;24063;51.794;19.578;2023-01-15T06:19:26;2.96;;;2.96;;
38266;SDS011;24063;51.794;19.578;2023-01-15T06:20:28;3.05;;;3.05;;
38266;SDS011;24063;51.794;19.578;2023-01-15T06:21:31;2.80;;;2.80;;
38266;SDS011;24063;51.794;19.578;2023-01-15T06:22:34;3.21;;;3.21;;
38266;SDS011;24063;51.794;19.578;2023-01-15T06:23:37;2.91;;;2.91;;
38266;SDS011;24063;51.794;19.578;2023-01-15T06:24:40;3.19;;;3.19;;
38266;SDS011;24063;51.794;19.578;2023-01-15T06:25:42;3.41;;;3.41;;
38266;SDS011;24063;51.794;19.578;2023-01-15T06:26:44;3.28;;;3.28;;
38266;SDS011;24063;51.794;19.578;2023-01-15T06:27:47;3.27;;;3.27;;
38266;SDS011;24063;51.794;19.578;2023-01-15T06:28:52;3.24;;;3.24;;
38266;SDS011;24063;51.794;19.578;2023-01-15T06:29:54;3.04;;;3.04;;
38266;SDS011;24063;51.794;19.578;2023-01-15T06:30:59;3.10;;;3.10;;
38266;SDS011;24063;51.794;19.578;2023-01-15T06:32:01;3.02;;;3.02;;
38266;SDS011;24063;51.794;19.578;2023-01-15T06:33:03;2.48;;;2.48;;
38266;SDS011;24063;51.794;19.578;2023-01-15T06:34:06;2.52;;;2.52;;
38266;SDS011;24063;51.794;19.578;2023-01-15T06:35:08;2.83;;;2.83;;
38266;SDS011;24063;51.794;19.578;2023-01-15T06:36:15;3.20;;;3.20;;
38266;SDS011;24063;51.794;19.578;2023-01-15T06:37:19;3.19;;;3.19;;
38266;SDS011;24063;51.794;19.578;2023-01-15T06:38:21;2.97;;;2.97;;
38266;SDS011;24063;51.794;19.578;2023-01-15T06:39:23;3.21;;;3.21;;
38266;SDS011;24063;51.794;19.578;2023-01-15T06:40:24;2.98;;;2.98;;
38266;SDS011;24063;51.794;19.578;2023-01-15T06:41:27;2.73;;;2.73;;
38266;SDS011;24063;51.794;19.578;2023-01-15T06:42:48;2.87;;;2.87;;
38266;SDS011;24063;51.794;19.578;2023-01-15T06:44:10;3.09;;;3.09;;
38266;SDS011;24063;51.794;19.578;2023-01-15T06:45:37;3.04;;;3.04;;
38266;SDS011;24063;51.794;19.578;2023-01-15T06:47:01;2.41;;;2.41;;
38266;SDS011;24063;51.794;19.578;2023-01-15T06:48:25;2.96;;;2.96;;
38266;SDS011;24063;51.794;19.578;2023-01-15T06:49:29;2.75;;;2.75;;